Time;durP1;ratioP1;P1;durP2;ratioP2;P2;SDS_P1;SDS_P2;PMS_P1;PMS_P2;Temp;Humidity;BMP_temperature;BMP_pressure;BME280_temperature;BME280_humidity;BME280_pressure;Samples;Min_cycle;Max_cycle;Signal;HPM_P1;HPM_P2
2023/07/25 00:00:33;;;;;;;1.35;0.30;;;12.90;99.90;;;;;;4985020;28;20034;-84
2023/07/25 00:02:59;;;;;;;1.95;0.40;;;13.00;99.90;;;;;;4955481;28;20038;-84
2023/07/25 00:05:25;;;;;;;1.42;0.47;;;12.90;99.90;;;;;;4956173;28;20064;-84
2023/07/25 00:07:50;;;;;;;2.40;0.52;;;12.80;99.90;;;;;;4953556;28;20050;-83
2023/07/25 00:10:18;;;;;;;1.30;0.30;;;12.80;99.90;;;;;;4970819;28;20034;-84
2023/07/25 00:12:44;;;;;;;1.30;0.40;;;12.90;99.90;;;;;;4915866;28;1110879;-84
2023/07/25 00:15:10;;;;;;;2.45;0.40;;;12.80;99.90;;;;;;4954845;28;20487;-84
2023/07/25 00:17:36;;;;;;;0.75;0.30;;;12.80;99.90;;;;;;4966460;28;20085;-83
2023/07/25 00:20:03;;;;;;;2.28;0.40;;;12.70;99.90;;;;;;4972461;28;20065;-84
2023/07/25 00:22:28;;;;;;;1.35;0.40;;;12.70;99.90;;;;;;4961062;28;20077;-80
2023/07/25 00:24:54;;;;;;;1.50;0.40;;;12.60;99.90;;;;;;4955051;28;20371;-84
2023/07/25 00:27:20;;;;;;;0.80;0.30;;;12.60;99.90;;;;;;4966429;28;20077;-84
2023/07/25 00:29:47;;;;;;;1.95;0.40;;;12.60;99.90;;;;;;4949256;28;20546;-85
2023/07/25 00:32:13;;;;;;;1.00;0.50;;;12.50;99.90;;;;;;4970277;28;20049;-84
2023/07/25 00:34:38;;;;;;;1.58;0.40;;;12.50;99.90;;;;;;4957276;28;20026;-84
2023/07/25 00:37:05;;;;;;;2.00;0.85;;;12.50;99.90;;;;;;4980478;28;20045;-84
2023/07/25 00:39:30;;;;;;;1.98;0.60;;;12.40;99.90;;;;;;4992740;28;20074;-84
2023/07/25 00:41:56;;;;;;;1.35;0.40;;;12.40;99.90;;;;;;4975282;28;20069;-84
2023/07/25 00:44:22;;;;;;;1.15;0.32;;;12.40;99.90;;;;;;4990721;28;20042;-84
2023/07/25 00:46:47;;;;;;;1.75;0.50;;;12.30;99.90;;;;;;4979846;28;20039;-82
2023/07/25 00:49:13;;;;;;;1.70;0.50;;;12.30;99.90;;;;;;4986384;28;20042;-84
2023/07/25 00:51:39;;;;;;;1.85;0.40;;;12.30;99.90;;;;;;4976344;28;20085;-81
2023/07/25 00:54:05;;;;;;;1.80;0.40;;;12.30;99.90;;;;;;4959200;28;20057;-84
2023/07/25 00:56:31;;;;;;;2.08;0.32;;;12.20;99.90;;;;;;4957868;28;20090;-82
2023/07/25 00:58:57;;;;;;;1.25;0.40;;;12.20;99.90;;;;;;4992177;28;20069;-84
2023/07/25 01:01:24;;;;;;;0.98;0.38;;;12.20;99.90;;;;;;4976665;28;20407;-81
2023/07/25 01:03:52;;;;;;;2.20;0.40;;;12.20;99.90;;;;;;4977901;28;20351;-83
2023/07/25 01:06:18;;;;;;;2.97;0.40;;;12.10;99.90;;;;;;4991976;28;20050;-79
2023/07/25 01:08:52;;;;;;;1.95;0.40;;;12.20;99.90;;;;;;4978277;28;20386;-84
2023/07/25 01:11:19;;;;;;;0.90;0.30;;;12.10;99.90;;;;;;4977877;28;20515;-84
2023/07/25 01:13:45;;;;;;;1.55;0.40;;;12.10;99.90;;;;;;4962447;28;20042;-84
2023/07/25 01:16:14;;;;;;;1.73;0.40;;;12.10;99.90;;;;;;4977015;28;20493;-84
2023/07/25 01:18:41;;;;;;;1.73;0.40;;;12.00;99.90;;;;;;4962355;28;20030;-85
2023/07/25 01:21:08;;;;;;;1.55;0.40;;;12.00;99.90;;;;;;4994328;28;20066;-86
2023/07/25 01:23:35;;;;;;;1.00;0.30;;;12.00;99.90;;;;;;4995523;28;20039;-84
2023/07/25 01:26:01;;;;;;;0.90;0.32;;;11.80;99.90;;;;;;4963552;28;20085;-85
2023/07/25 01:28:27;;;;;;;1.55;0.50;;;11.90;99.90;;;;;;4976950;28;20078;-85
2023/07/25 01:30:52;;;;;;;1.30;0.50;;;11.80;99.90;;;;;;4978565;28;20041;-85
2023/07/25 01:33:18;;;;;;;1.40;0.47;;;11.80;99.90;;;;;;4977517;28;20034;-85
2023/07/25 01:35:44;;;;;;;1.17;0.40;;;11.70;99.90;;;;;;4979395;28;20034;-85
2023/07/25 01:38:10;;;;;;;1.77;0.50;;;11.80;99.90;;;;;;4977279;28;20044;-86
2023/07/25 01:40:39;;;;;;;1.30;0.40;;;11.70;99.90;;;;;;4980333;28;20042;-84
2023/07/25 01:43:05;;;;;;;1.10;0.40;;;11.70;99.90;;;;;;4980085;28;20109;-85
2023/07/25 01:45:31;;;;;;;1.30;0.40;;;11.70;99.90;;;;;;4973350;28;20337;-86
2023/07/25 01:47:59;;;;;;;1.17;0.38;;;11.60;99.90;;;;;;4959743;28;20124;-84
2023/07/25 01:50:28;;;;;;;2.50;0.50;;;11.60;99.90;;;;;;4996381;28;20027;-82
2023/07/25 01:52:54;;;;;;;1.55;0.68;;;11.60;99.90;;;;;;4971161;28;20490;-86
2023/07/25 01:55:20;;;;;;;1.45;0.47;;;11.60;99.90;;;;;;4955001;28;20053;-85
2023/07/25 01:57:46;;;;;;;1.63;0.40;;;11.60;99.90;;;;;;4957496;28;20057;-86
2023/07/25 02:00:12;;;;;;;1.10;0.50;;;11.50;99.90;;;;;;4962722;28;20581;-86
2023/07/25 02:02:38;;;;;;;2.70;0.57;;;11.50;99.90;;;;;;4992073;28;20061;-83
2023/07/25 02:05:04;;;;;;;1.42;0.50;;;11.50;99.90;;;;;;4989708;28;20121;-82
2023/07/25 02:07:30;;;;;;;1.10;0.50;;;11.50;99.90;;;;;;4955980;28;20042;-81
2023/07/25 02:09:56;;;;;;;0.90;0.55;;;11.50;99.90;;;;;;4975876;28;20034;-85
2023/07/25 02:12:22;;;;;;;2.22;0.50;;;11.50;99.90;;;;;;4955071;28;20102;-83
2023/07/25 02:14:48;;;;;;;2.15;0.75;;;11.40;99.90;;;;;;4960093;28;20696;-86
2023/07/25 02:17:14;;;;;;;1.35;0.50;;;11.40;99.90;;;;;;4979339;28;20042;-81
2023/07/25 02:19:39;;;;;;;3.50;0.40;;;11.40;99.90;;;;;;4956821;28;20038;-85
2023/07/25 02:22:06;;;;;;;1.50;0.40;;;11.30;99.90;;;;;;4977628;28;20066;-85
2023/07/25 02:24:31;;;;;;;1.00;0.50;;;11.30;99.90;;;;;;4959401;28;20026;-85
2023/07/25 02:26:57;;;;;;;2.13;0.60;;;11.30;99.90;;;;;;4959828;28;20500;-82
2023/07/25 02:29:23;;;;;;;1.10;0.50;;;11.30;99.90;;;;;;4956369;28;20048;-85
2023/07/25 02:31:49;;;;;;;2.25;0.60;;;11.30;99.90;;;;;;4955296;28;20108;-80
2023/07/25 02:34:16;;;;;;;1.73;0.50;;;11.30;99.90;;;;;;4958936;28;20050;-86
2023/07/25 02:36:42;;;;;;;2.17;0.60;;;11.30;99.90;;;;;;4992374;28;20026;-86
2023/07/25 02:39:08;;;;;;;1.70;0.52;;;11.30;99.90;;;;;;4960150;28;20043;-87
2023/07/25 02:41:35;;;;;;;1.55;0.40;;;11.30;99.90;;;;;;4955608;28;20035;-86
2023/07/25 02:44:01;;;;;;;3.20;0.50;;;11.20;99.90;;;;;;4985105;28;20034;-84
2023/07/25 02:46:26;;;;;;;2.03;0.50;;;11.20;99.90;;;;;;4974822;28;20058;-87
2023/07/25 02:48:52;;;;;;;2.78;0.50;;;11.20;99.90;;;;;;4958907;28;20447;-85
2023/07/25 02:51:18;;;;;;;3.35;0.65;;;11.20;99.90;;;;;;4973286;28;20034;-85
2023/07/25 02:53:44;;;;;;;2.40;0.55;;;11.20;99.90;;;;;;4975800;28;20504;-86
2023/07/25 02:56:10;;;;;;;0.95;0.50;;;11.10;99.90;;;;;;4955240;28;20031;-85
2023/07/25 02:58:36;;;;;;;1.67;0.50;;;11.10;99.90;;;;;;4961703;28;20038;-86
2023/07/25 03:01:02;;;;;;;2.70;0.40;;;11.10;99.90;;;;;;4975371;28;20467;-86
2023/07/25 03:03:28;;;;;;;1.35;0.60;;;11.20;99.90;;;;;;4970315;28;20039;-87
2023/07/25 03:05:54;;;;;;;3.47;0.50;;;11.20;99.90;;;;;;4992176;28;20085;-87
2023/07/25 03:08:21;;;;;;;1.35;0.50;;;11.20;99.90;;;;;;4973538;28;20045;-87
2023/07/25 03:10:46;;;;;;;1.58;0.50;;;11.10;99.90;;;;;;4957791;28;20038;-82
2023/07/25 03:13:12;;;;;;;1.50;0.57;;;11.10;99.90;;;;;;4988988;28;20052;-84
2023/07/25 03:15:38;;;;;;;2.60;0.50;;;11.10;99.90;;;;;;4975177;28;20039;-83
2023/07/25 03:18:04;;;;;;;3.05;0.50;;;11.10;99.90;;;;;;4972937;28;20201;-86
2023/07/25 03:20:30;;;;;;;1.13;0.50;;;11.10;99.90;;;;;;4972723;28;20558;-80
2023/07/25 03:22:56;;;;;;;1.15;0.50;;;11.10;99.90;;;;;;4974104;28;20607;-85
2023/07/25 03:25:21;;;;;;;2.10;0.50;;;11.10;99.90;;;;;;4958167;28;20062;-84
2023/07/25 03:27:47;;;;;;;1.10;0.52;;;11.10;99.90;;;;;;4976540;28;20124;-85
2023/07/25 03:30:13;;;;;;;1.42;0.63;;;11.10;99.90;;;;;;4996611;28;20038;-86
2023/07/25 03:32:38;;;;;;;2.58;0.60;;;11.10;99.90;;;;;;4971526;28;20525;-85
2023/07/25 03:35:05;;;;;;;1.77;0.52;;;11.20;99.90;;;;;;4972053;28;20130;-86
2023/07/25 03:37:31;;;;;;;2.60;0.95;;;11.20;99.90;;;;;;4950136;28;20059;-85
2023/07/25 03:39:57;;;;;;;3.38;0.80;;;11.20;99.90;;;;;;4974262;28;20034;-85
2023/07/25 03:42:22;;;;;;;2.67;0.70;;;11.20;99.90;;;;;;4991407;28;20129;-85
2023/07/25 03:44:48;;;;;;;3.47;0.63;;;11.20;99.90;;;;;;4958263;28;20069;-86
2023/07/25 03:47:14;;;;;;;2.10;0.80;;;11.20;99.90;;;;;;4957366;28;20137;-86
2023/07/25 03:49:40;;;;;;;2.13;0.55;;;11.10;99.90;;;;;;4955619;28;20034;-86
2023/07/25 03:52:06;;;;;;;2.95;0.60;;;11.10;99.90;;;;;;4954855;28;20046;-84
2023/07/25 03:54:31;;;;;;;2.17;0.60;;;11.10;99.90;;;;;;4973166;28;20039;-86
2023/07/25 03:56:57;;;;;;;2.00;0.70;;;11.10;99.90;;;;;;4972578;28;20584;-86
2023/07/25 03:59:23;;;;;;;1.40;0.70;;;11.10;99.90;;;;;;4973310;28;20057;-87
2023/07/25 04:01:48;;;;;;;1.85;0.60;;;11.10;99.90;;;;;;4990996;28;20039;-81
2023/07/25 04:04:14;;;;;;;1.42;0.60;;;11.10;99.90;;;;;;4957798;28;20063;-86
2023/07/25 04:06:40;;;;;;;1.65;0.60;;;11.20;99.90;;;;;;4973746;28;20138;-87
2023/07/25 04:09:06;;;;;;;2.30;0.60;;;11.30;99.90;;;;;;4954405;28;20172;-87
2023/07/25 04:11:32;;;;;;;2.17;0.50;;;11.40;99.90;;;;;;4973263;28;20050;-87
2023/07/25 04:13:57;;;;;;;2.13;0.70;;;11.40;99.90;;;;;;4971443;28;20035;-87
2023/07/25 04:16:23;;;;;;;3.40;0.75;;;11.40;99.90;;;;;;4969153;28;20128;-87
2023/07/25 04:18:49;;;;;;;1.75;0.60;;;11.40;99.90;;;;;;4957776;28;20034;-84
2023/07/25 04:21:15;;;;;;;1.55;0.70;;;11.30;99.90;;;;;;4967247;28;20414;-83
2023/07/25 04:23:41;;;;;;;2.45;0.60;;;11.30;99.90;;;;;;4954011;28;20126;-86
2023/07/25 04:26:07;;;;;;;1.80;0.50;;;11.40;99.90;;;;;;4957676;28;20069;-87
2023/07/25 04:28:33;;;;;;;1.42;0.60;;;11.40;99.90;;;;;;4955093;28;20069;-86
2023/07/25 04:30:58;;;;;;;1.92;0.70;;;11.40;99.90;;;;;;4971031;28;20039;-88
2023/07/25 04:33:24;;;;;;;1.40;0.60;;;11.40;99.90;;;;;;4969519;28;20042;-86
2023/07/25 04:35:50;;;;;;;2.55;0.65;;;11.50;99.90;;;;;;4971790;28;20039;-87
2023/07/25 04:38:16;;;;;;;1.88;0.65;;;11.50;99.90;;;;;;4954934;28;20041;-84
2023/07/25 04:40:45;;;;;;;1.65;0.80;;;11.50;99.90;;;;;;4969627;28;20573;-87
2023/07/25 04:43:11;;;;;;;2.35;0.70;;;11.50;99.90;;;;;;4989298;28;20042;-84
2023/07/25 04:45:37;;;;;;;2.33;0.82;;;11.60;99.90;;;;;;4989816;28;20031;-87
2023/07/25 04:48:04;;;;;;;1.77;0.60;;;11.60;99.90;;;;;;4973075;28;20046;-87
2023/07/25 04:50:29;;;;;;;2.88;0.80;;;11.60;99.90;;;;;;4966838;28;20297;-81
2023/07/25 04:52:55;;;;;;;3.08;0.80;;;11.70;99.90;;;;;;4973443;28;20505;-87
2023/07/25 04:55:21;;;;;;;3.80;1.48;;;11.70;99.90;;;;;;4956944;28;20506;-87
2023/07/25 04:57:48;;;;;;;2.30;0.95;;;11.80;99.90;;;;;;4956647;28;20487;-85
2023/07/25 05:00:14;;;;;;;2.28;1.05;;;11.80;99.90;;;;;;4957300;28;20046;-86
2023/07/25 05:02:41;;;;;;;2.05;0.75;;;11.90;99.90;;;;;;4954873;28;20097;-87
2023/07/25 05:05:07;;;;;;;2.88;0.60;;;11.90;99.90;;;;;;4956293;28;20038;-85
2023/07/25 05:07:33;;;;;;;3.38;0.90;;;12.00;99.90;;;;;;4978792;28;20069;-86
2023/07/25 05:09:58;;;;;;;1.80;0.60;;;12.00;99.90;;;;;;4951517;28;20065;-87
2023/07/25 05:12:24;;;;;;;2.22;0.80;;;12.10;99.90;;;;;;4978414;28;20048;-82
2023/07/25 05:14:50;;;;;;;2.95;1.00;;;12.10;99.90;;;;;;4985564;28;20026;-87
2023/07/25 05:17:16;;;;;;;3.00;0.88;;;12.10;99.90;;;;;;4975223;28;20069;-83
2023/07/25 05:19:41;;;;;;;2.92;0.80;;;12.20;99.90;;;;;;4972732;28;20065;-85
2023/07/25 05:22:07;;;;;;;4.03;0.75;;;12.20;99.90;;;;;;4988404;28;20039;-88
2023/07/25 05:24:33;;;;;;;1.80;0.70;;;12.30;99.90;;;;;;4995966;28;20034;-87
2023/07/25 05:26:59;;;;;;;2.20;0.85;;;12.40;99.90;;;;;;4958270;28;20134;-87
2023/07/25 05:29:24;;;;;;;3.58;0.75;;;12.50;99.90;;;;;;4978542;28;20038;-86
2023/07/25 05:31:50;;;;;;;1.80;0.80;;;12.50;99.90;;;;;;4959068;28;20039;-87
2023/07/25 05:34:16;;;;;;;2.33;0.50;;;12.50;99.90;;;;;;4975620;28;20039;-86
2023/07/25 05:36:41;;;;;;;4.57;0.70;;;12.70;99.90;;;;;;4973190;28;20092;-86
2023/07/25 05:39:07;;;;;;;3.53;1.20;;;12.60;99.90;;;;;;4971155;28;20053;-85
2023/07/25 05:41:33;;;;;;;2.63;0.80;;;12.70;99.90;;;;;;4959814;28;20044;-86
2023/07/25 05:43:59;;;;;;;1.92;0.70;;;12.80;99.90;;;;;;4990517;28;20117;-86
2023/07/25 05:46:24;;;;;;;3.95;1.20;;;12.90;99.90;;;;;;4974435;28;20046;-86
2023/07/25 05:48:50;;;;;;;2.90;1.40;;;12.80;99.90;;;;;;4975682;28;20045;-85
2023/07/25 05:51:16;;;;;;;5.40;1.60;;;12.80;99.90;;;;;;4989149;28;20085;-86
2023/07/25 05:53:41;;;;;;;8.57;2.25;;;13.00;99.90;;;;;;4974423;28;20034;-84
2023/07/25 05:56:07;;;;;;;3.33;2.22;;;13.20;99.90;;;;;;4960069;28;20070;-86
2023/07/25 05:58:33;;;;;;;7.22;1.98;;;13.30;99.90;;;;;;4972597;28;20046;-86
2023/07/25 06:01:00;;;;;;;6.07;1.95;;;13.30;99.90;;;;;;4957124;28;20076;-84
2023/07/25 06:03:26;;;;;;;3.85;0.93;;;13.40;99.90;;;;;;4972927;28;20034;-86
2023/07/25 06:05:51;;;;;;;6.55;1.92;;;13.60;99.90;;;;;;4964433;28;20039;-86
2023/07/25 06:08:17;;;;;;;7.07;1.77;;;13.50;99.90;;;;;;4983003;28;20052;-83
2023/07/25 06:10:43;;;;;;;5.55;2.53;;;13.70;99.90;;;;;;4978980;28;20042;-85
2023/07/25 06:13:09;;;;;;;6.15;1.73;;;13.90;99.90;;;;;;4970580;28;20059;-81
2023/07/25 06:15:35;;;;;;;8.75;1.60;;;14.20;99.90;;;;;;4980627;28;20390;-86
2023/07/25 06:18:01;;;;;;;4.70;1.73;;;14.40;99.90;;;;;;4969104;28;20499;-84
2023/07/25 06:20:27;;;;;;;5.75;1.80;;;14.60;99.90;;;;;;4952104;28;20565;-84
2023/07/25 06:22:53;;;;;;;6.57;1.38;;;14.60;99.90;;;;;;4990305;28;20117;-83
2023/07/25 06:25:18;;;;;;;3.20;0.85;;;14.80;99.90;;;;;;4972365;28;20101;-85
2023/07/25 06:27:44;;;;;;;4.15;0.85;;;14.90;99.90;;;;;;4974700;28;20100;-85
2023/07/25 06:30:10;;;;;;;2.53;0.80;;;14.90;99.90;;;;;;4956665;28;20117;-83
2023/07/25 06:32:37;;;;;;;5.22;1.00;;;14.80;99.90;;;;;;4987885;28;20364;-84
2023/07/25 06:35:04;;;;;;;2.72;0.60;;;14.90;99.90;;;;;;4988041;28;20058;-86
2023/07/25 06:37:32;;;;;;;3.08;0.70;;;15.10;99.90;;;;;;4955941;28;20337;-86
2023/07/25 06:40:00;;;;;;;2.38;0.68;;;15.30;99.90;;;;;;4951424;28;20082;-81
2023/07/25 06:42:29;;;;;;;5.65;0.70;;;15.30;99.90;;;;;;4966565;28;20038;-85
2023/07/25 06:44:56;;;;;;;5.88;0.60;;;15.30;99.90;;;;;;4985573;28;20506;-86
2023/07/25 06:47:22;;;;;;;5.03;0.60;;;15.30;99.90;;;;;;4972379;28;20129;-85
2023/07/25 06:49:47;;;;;;;3.70;0.50;;;15.30;99.90;;;;;;4972866;28;20514;-84
2023/07/25 06:52:13;;;;;;;3.40;0.40;;;15.30;99.90;;;;;;4988488;28;20049;-83
2023/07/25 06:54:40;;;;;;;4.68;0.50;;;15.60;99.90;;;;;;4970578;28;20034;-84
2023/07/25 06:57:07;;;;;;;3.28;0.50;;;15.70;99.90;;;;;;4985869;28;20051;-85
2023/07/25 06:59:32;;;;;;;2.45;0.40;;;16.10;99.90;;;;;;4967031;28;20097;-83
2023/07/25 07:01:58;;;;;;;4.82;0.57;;;16.00;99.90;;;;;;4969243;28;20061;-85
2023/07/25 07:04:24;;;;;;;3.92;0.50;;;15.80;99.90;;;;;;4968832;28;20066;-81
2023/07/25 07:06:49;;;;;;;3.63;0.40;;;15.60;99.90;;;;;;4955542;28;20277;-84
2023/07/25 07:09:15;;;;;;;2.28;0.50;;;15.40;99.90;;;;;;4983482;28;20109;-79
2023/07/25 07:11:41;;;;;;;4.43;0.40;;;15.30;99.90;;;;;;4953952;28;20053;-83
2023/07/25 07:14:07;;;;;;;3.60;0.50;;;15.30;99.90;;;;;;4970578;28;20034;-83
2023/07/25 07:16:33;;;;;;;2.97;0.40;;;15.30;99.90;;;;;;4954854;28;20097;-83
2023/07/25 07:18:59;;;;;;;4.63;0.50;;;15.30;99.90;;;;;;4985351;28;20030;-84
2023/07/25 07:21:24;;;;;;;3.97;0.40;;;15.40;99.90;;;;;;4969466;28;20095;-80
2023/07/25 07:23:50;;;;;;;4.18;0.40;;;15.30;99.90;;;;;;4970836;28;20038;-84
2023/07/25 07:26:16;;;;;;;3.15;0.70;;;15.30;99.90;;;;;;4953077;28;20521;-82
2023/07/25 07:28:41;;;;;;;6.38;0.40;;;15.30;99.90;;;;;;4985038;28;20483;-83
2023/07/25 07:31:12;;;;;;;6.97;0.68;;;15.30;99.90;;;;;;4971166;28;20093;-81
2023/07/25 07:33:38;;;;;;;3.03;0.40;;;15.20;99.90;;;;;;4982288;28;20077;-80
2023/07/25 07:36:07;;;;;;;3.17;0.40;;;15.30;99.90;;;;;;4977040;28;20553;-82
2023/07/25 07:38:33;;;;;;;3.92;0.63;;;15.50;99.90;;;;;;4982632;28;20368;-81
2023/07/25 07:40:58;;;;;;;2.97;0.40;;;15.60;99.90;;;;;;4953285;28;20069;-82
2023/07/25 07:43:24;;;;;;;2.63;0.40;;;15.90;99.90;;;;;;4968233;28;20458;-80
2023/07/25 07:45:56;;;;;;;2.80;0.40;;;15.80;99.90;;;;;;4970605;28;20034;-83
2023/07/25 07:48:21;;;;;;;1.70;0.30;;;15.70;99.90;;;;;;4956792;28;20043;-79
2023/07/25 07:50:49;;;;;;;6.68;0.43;;;15.90;99.90;;;;;;4985335;28;20053;-83
2023/07/25 07:53:15;;;;;;;2.67;0.30;;;15.80;99.90;;;;;;4980858;28;20135;-83
2023/07/25 07:55:41;;;;;;;2.22;0.25;;;15.70;99.90;;;;;;4963195;28;20026;-83
2023/07/25 07:58:07;;;;;;;2.40;0.20;;;16.00;99.90;;;;;;4970668;28;20053;-83
2023/07/25 08:00:32;;;;;;;1.27;0.20;;;15.90;99.90;;;;;;4952887;28;20041;-81
2023/07/25 08:02:58;;;;;;;1.25;0.30;;;16.20;99.90;;;;;;4984473;28;20039;-83
2023/07/25 08:05:24;;;;;;;3.10;0.40;;;16.10;99.90;;;;;;4982400;28;20030;-84
2023/07/25 08:07:50;;;;;;;2.25;0.30;;;16.10;99.90;;;;;;4965537;28;20042;-83
2023/07/25 08:10:16;;;;;;;2.10;0.20;;;15.90;99.90;;;;;;4949826;28;20042;-83
2023/07/25 08:12:41;;;;;;;1.60;0.20;;;15.80;99.90;;;;;;4982317;28;20070;-83
2023/07/25 08:15:07;;;;;;;1.67;0.28;;;15.90;99.90;;;;;;4962379;28;20104;-83
2023/07/25 08:17:34;;;;;;;1.73;0.20;;;15.90;99.90;;;;;;4970766;28;20529;-83
2023/07/25 08:19:59;;;;;;;2.17;0.20;;;15.90;99.90;;;;;;4953723;28;20117;-83
2023/07/25 08:22:25;;;;;;;3.13;0.30;;;15.80;99.90;;;;;;4984767;28;20356;-83
2023/07/25 08:24:53;;;;;;;1.23;0.20;;;15.70;99.90;;;;;;4977390;28;20471;-84
2023/07/25 08:27:18;;;;;;;1.45;0.20;;;15.80;99.90;;;;;;4949662;28;20054;-79
2023/07/25 08:29:47;;;;;;;1.08;0.25;;;16.10;99.90;;;;;;4954288;28;20034;-83
2023/07/25 08:32:14;;;;;;;3.88;0.20;;;16.30;99.90;;;;;;4950816;28;20096;-84
2023/07/25 08:34:40;;;;;;;2.33;0.35;;;16.50;99.90;;;;;;4984949;28;20085;-84
2023/07/25 08:37:06;;;;;;;2.08;0.40;;;16.70;99.90;;;;;;4966477;28;20131;-84
2023/07/25 08:39:33;;;;;;;2.08;0.20;;;16.80;99.90;;;;;;4969922;28;20046;-84
2023/07/25 08:42:01;;;;;;;2.05;0.30;;;16.80;99.90;;;;;;4966503;28;20034;-84
2023/07/25 08:44:27;;;;;;;2.33;0.30;;;16.60;99.90;;;;;;4967105;28;20031;-79
2023/07/25 08:46:55;;;;;;;1.95;0.30;;;16.70;99.90;;;;;;4965979;28;20054;-84
2023/07/25 08:49:23;;;;;;;1.88;0.20;;;16.60;99.90;;;;;;4948837;28;20450;-84
2023/07/25 08:51:52;;;;;;;2.88;0.20;;;16.40;99.90;;;;;;4966548;28;20042;-84
2023/07/25 08:54:31;;;;;;;4.00;0.20;;;16.40;99.90;;;;;;4970370;28;20093;-83
2023/07/25 08:56:57;;;;;;;3.63;0.30;;;16.40;99.90;;;;;;4953295;28;20035;-83
2023/07/25 08:59:25;;;;;;;2.70;0.28;;;16.20;99.90;;;;;;4974175;28;20041;-84
2023/07/25 09:01:54;;;;;;;2.45;0.20;;;16.10;99.90;;;;;;4971962;28;20476;-84
2023/07/25 09:04:22;;;;;;;1.80;0.30;;;16.10;99.90;;;;;;4978956;28;20118;-85
2023/07/25 09:06:48;;;;;;;2.75;0.30;;;16.30;99.90;;;;;;4973059;28;20133;-83
2023/07/25 09:09:14;;;;;;;4.63;0.28;;;16.40;99.90;;;;;;4952764;28;20141;-84
2023/07/25 09:11:40;;;;;;;2.20;0.20;;;16.50;99.90;;;;;;4972202;28;20054;-84
2023/07/25 09:14:06;;;;;;;1.52;0.20;;;17.10;99.90;;;;;;4956155;28;20042;-85
2023/07/25 09:16:33;;;;;;;2.63;0.20;;;17.10;99.90;;;;;;4957842;28;20031;-84
2023/07/25 09:18:58;;;;;;;1.50;0.20;;;17.40;99.90;;;;;;4973379;28;20042;-84
2023/07/25 09:21:24;;;;;;;3.45;0.20;;;17.70;99.90;;;;;;4956503;28;20045;-80
2023/07/25 09:23:58;;;;;;;4.95;0.45;;;18.10;99.90;;;;;;4987648;28;20046;-85
2023/07/25 09:26:26;;;;;;;2.70;0.20;;;18.30;99.90;;;;;;4956221;28;20093;-84
2023/07/25 09:28:54;;;;;;;1.35;0.20;;;18.60;99.90;;;;;;4966048;28;20038;-83
2023/07/25 09:31:21;;;;;;;2.30;0.20;;;18.90;99.90;;;;;;4973688;28;20043;-83
2023/07/25 09:33:49;;;;;;;1.08;0.10;;;19.20;99.90;;;;;;4952866;28;20073;-81
2023/07/25 09:36:15;;;;;;;1.85;0.20;;;20.20;99.90;;;;;;4970726;28;20130;-84
2023/07/25 09:38:52;;;;;;;1.05;0.10;;;19.30;99.90;;;;;;4969386;28;20046;-84
2023/07/25 09:41:19;;;;;;;3.50;0.22;;;18.50;99.90;;;;;;4968540;28;20167;-80
2023/07/25 09:43:45;;;;;;;2.10;0.20;;;18.40;99.90;;;;;;4973126;28;20217;-84
2023/07/25 09:46:11;;;;;;;0.88;0.10;;;19.20;99.90;;;;;;4963268;28;20215;-83
2023/07/25 09:48:43;;;;;;;2.22;0.20;;;19.70;99.90;;;;;;4985223;28;20593;-81
2023/07/25 09:51:11;;;;;;;2.55;0.20;;;18.90;99.90;;;;;;4986501;28;20121;-82
2023/07/25 09:53:38;;;;;;;3.08;0.30;;;18.30;99.90;;;;;;4952361;28;20227;-82
2023/07/25 09:56:04;;;;;;;1.52;0.20;;;18.10;99.90;;;;;;4967441;28;20112;-83
2023/07/25 09:58:31;;;;;;;0.85;0.15;;;17.80;99.90;;;;;;4956231;28;20049;-79
2023/07/25 10:00:57;;;;;;;1.77;0.20;;;17.70;99.90;;;;;;4987498;28;20430;-84
2023/07/25 10:03:24;;;;;;;2.42;0.35;;;17.60;99.90;;;;;;4979456;28;20113;-84
2023/07/25 10:05:50;;;;;;;1.42;0.20;;;17.90;99.90;;;;;;4952653;28;20105;-81
2023/07/25 10:08:17;;;;;;;2.13;0.20;;;18.10;99.90;;;;;;4966485;28;20184;-82
2023/07/25 10:10:43;;;;;;;0.65;0.10;;;18.80;99.90;;;;;;4952555;28;20061;-83
2023/07/25 10:13:09;;;;;;;2.55;0.10;;;18.80;99.90;;;;;;4972769;28;20054;-80
2023/07/25 10:15:36;;;;;;;2.15;0.10;;;18.50;99.90;;;;;;4956156;28;20041;-85
2023/07/25 10:18:23;;;;;;;1.75;0.20;;;18.10;99.90;;;;;;4967575;28;20039;-83
2023/07/25 10:20:50;;;;;;;1.45;0.20;;;18.70;99.90;;;;;;4953720;28;20443;-82
2023/07/25 10:23:16;;;;;;;1.33;0.10;;;18.30;99.90;;;;;;4959232;28;20045;-84
2023/07/25 10:25:42;;;;;;;0.70;0.10;;;19.20;99.90;;;;;;4972384;28;20475;-81
2023/07/25 10:28:08;;;;;;;1.08;0.10;;;19.60;99.90;;;;;;4968370;28;20141;-79
2023/07/25 10:30:45;;;;;;;0.98;0.20;;;20.00;99.90;;;;;;4977423;28;20406;-82
2023/07/25 10:33:15;;;;;;;1.75;0.13;;;19.30;99.90;;;;;;4985369;28;20042;-83
2023/07/25 10:35:54;;;;;;;2.95;0.10;;;19.50;99.90;;;;;;4968560;28;20128;-83
2023/07/25 10:38:33;;;;;;;1.80;0.10;;;19.50;99.90;;;;;;4959196;28;20084;-83
2023/07/25 10:41:10;;;;;;;1.13;0.10;;;18.90;99.90;;;;;;4968948;28;20305;-84
2023/07/25 10:43:58;;;;;;;1.33;0.10;;;18.70;99.90;;;;;;4952714;28;20056;-85
2023/07/25 10:46:42;;;;;;;0.73;0.10;;;19.40;99.90;;;;;;4970755;28;20042;-82
2023/07/25 10:49:17;;;;;;;1.23;0.10;;;19.80;99.90;;;;;;4968097;28;20046;-82
2023/07/25 10:51:45;;;;;;;2.25;0.10;;;19.80;99.90;;;;;;4944473;28;20275;-81
2023/07/25 10:54:17;;;;;;;2.22;0.10;;;19.90;99.90;;;;;;4956523;28;20407;-82
2023/07/25 10:57:13;;;;;;;1.02;0.10;;;19.30;99.90;;;;;;4960514;28;20066;-80
2023/07/25 11:00:09;;;;;;;1.50;0.10;;;19.10;99.90;;;;;;4940730;28;20478;-80
2023/07/25 11:02:40;;;;;;;0.88;0.10;;;19.30;99.90;;;;;;4941925;28;20046;-79
2023/07/25 11:05:12;;;;;;;1.73;0.10;;;19.30;99.90;;;;;;4956647;28;20041;-81
2023/07/25 11:07:47;;;;;;;1.73;0.10;;;19.20;99.90;;;;;;4954638;28;20133;-79
2023/07/25 11:10:24;;;;;;;0.73;0.10;;;19.70;99.90;;;;;;4975841;28;20071;-81
2023/07/25 11:12:56;;;;;;;2.92;0.10;;;19.70;99.90;;;;;;4948771;28;20054;-81
2023/07/25 11:15:22;;;;;;;1.60;0.00;;;19.70;99.90;;;;;;4957157;28;20085;-79
2023/07/25 11:17:48;;;;;;;2.13;0.10;;;19.80;99.90;;;;;;4973979;28;20049;-79
2023/07/25 11:20:23;;;;;;;1.27;0.10;;;20.10;99.90;;;;;;4957116;28;20042;-82
2023/07/25 11:22:50;;;;;;;0.70;0.10;;;20.20;99.90;;;;;;4956071;28;20042;-81
2023/07/25 11:25:16;;;;;;;0.82;0.20;;;20.00;99.90;;;;;;4955267;28;20349;-80
2023/07/25 11:27:44;;;;;;;0.95;0.00;;;20.10;99.90;;;;;;4946998;28;20058;-81
2023/07/25 11:30:11;;;;;;;2.20;0.10;;;20.40;99.90;;;;;;4955660;28;20125;-80
2023/07/25 11:32:37;;;;;;;0.55;0.10;;;20.50;99.90;;;;;;4939922;28;20039;-81
2023/07/25 11:35:05;;;;;;;0.55;0.10;;;20.00;99.90;;;;;;4956011;28;20050;-81
2023/07/25 11:37:30;;;;;;;1.10;0.10;;;19.00;99.90;;;;;;4938246;28;20047;-79
2023/07/25 11:39:56;;;;;;;1.05;0.10;;;19.30;99.90;;;;;;4963223;28;20101;-81
2023/07/25 11:42:22;;;;;;;1.23;0.10;;;19.80;99.90;;;;;;4970279;28;20049;-83
2023/07/25 11:44:49;;;;;;;1.20;0.03;;;19.70;99.90;;;;;;4977619;28;20027;-80
2023/07/25 11:47:14;;;;;;;1.80;0.10;;;19.80;99.90;;;;;;4955759;28;20387;-79
2023/07/25 11:49:40;;;;;;;3.30;0.10;;;20.10;99.90;;;;;;4965588;28;20034;-80
2023/07/25 11:52:08;;;;;;;1.55;0.10;;;19.90;99.90;;;;;;4952649;28;20121;-83
2023/07/25 11:54:34;;;;;;;3.03;0.10;;;20.20;99.90;;;;;;4966406;28;20058;-82
2023/07/25 11:56:59;;;;;;;0.57;0.10;;;20.00;99.90;;;;;;4950088;28;20073;-81
2023/07/25 11:59:27;;;;;;;2.17;0.10;;;20.40;99.90;;;;;;4969843;28;20033;-82
2023/07/25 12:01:53;;;;;;;1.08;0.10;;;20.80;99.90;;;;;;4983802;28;20062;-78
2023/07/25 12:04:18;;;;;;;0.55;0.10;;;19.80;99.90;;;;;;4949821;28;20061;-81
2023/07/25 12:06:44;;;;;;;1.40;0.03;;;19.60;99.90;;;;;;4980681;28;20030;-81
2023/07/25 12:09:10;;;;;;;1.40;0.00;;;19.70;99.90;;;;;;4968626;28;20341;-82
2023/07/25 12:11:43;;;;;;;1.38;0.00;;;20.40;99.90;;;;;;4982766;28;20052;-80
2023/07/25 12:14:12;;;;;;;1.50;0.10;;;20.50;99.90;;;;;;4964452;28;20066;-79
2023/07/25 12:16:43;;;;;;;1.20;0.10;;;20.30;99.90;;;;;;4968836;28;20047;-80
2023/07/25 12:19:10;;;;;;;1.55;0.10;;;20.10;99.90;;;;;;4953815;28;20451;-79
2023/07/25 12:21:38;;;;;;;1.00;0.00;;;20.10;99.90;;;;;;4970525;28;20089;-81
2023/07/25 12:24:06;;;;;;;0.40;0.03;;;20.40;99.90;;;;;;4968991;28;20328;-81
2023/07/25 12:26:54;;;;;;;0.30;0.00;;;20.10;99.90;;;;;;4967586;28;20691;-84
2023/07/25 12:29:22;;;;;;;0.52;0.00;;;20.10;99.90;;;;;;4964151;28;20043;-82
2023/07/25 12:31:48;;;;;;;0.73;0.08;;;20.00;99.90;;;;;;4983425;28;20097;-81
2023/07/25 12:34:18;;;;;;;0.40;0.00;;;20.10;99.90;;;;;;4979382;28;20608;-81
2023/07/25 12:36:48;;;;;;;2.13;0.00;;;20.50;99.90;;;;;;4969426;28;20049;-81
2023/07/25 12:39:14;;;;;;;;;;;20.70;99.90;;;;;;4970763;28;20133;-77
2023/07/25 12:41:42;;;;;;;0.55;0.10;;;20.60;99.90;;;;;;4954103;28;20005;-82
2023/07/25 12:44:08;;;;;;;1.00;0.05;;;20.30;99.90;;;;;;4962267;28;20517;-82
2023/07/25 12:46:34;;;;;;;1.55;0.00;;;20.30;99.90;;;;;;4948614;28;20069;-82